Time;durP1;ratioP1;P1;durP2;ratioP2;P2;SDS_P1;SDS_P2;PMS_P1;PMS_P2;Temp;Humidity;BMP_temperature;BMP_pressure;BME280_temperature;BME280_humidity;BME280_pressure;Samples;Min_cycle;Max_cycle;Signal;HPM_P1;HPM_P2
2023/09/20 00:01:08;;;;;;;4.57;2.42;;;;;;;14.44;60.34;100543.44;7396167;19;20010;-70
2023/09/20 00:03:37;;;;;;;4.85;2.50;;;;;;;14.41;60.16;100541.78;7395412;19;20014;-70
2023/09/20 00:06:09;;;;;;;5.22;2.70;;;;;;;14.40;59.87;100540.06;7395623;19;20015;-70
2023/09/20 00:08:37;;;;;;;5.10;2.60;;;;;;;14.39;60.09;100543.63;7396355;19;20018;-70
2023/09/20 00:11:08;;;;;;;6.22;2.28;;;;;;;14.37;60.14;100545.47;7395828;19;20010;-70
2023/09/20 00:13:37;;;;;;;6.13;2.58;;;;;;;14.36;60.19;100548.19;7394951;19;20015;-70
2023/09/20 00:16:09;;;;;;;4.30;2.25;;;;;;;14.33;60.58;100546.50;7394505;19;20074;-70
2023/09/20 00:18:38;;;;;;;6.70;2.28;;;;;;;14.31;60.55;100551.00;7396031;19;20007;-70
2023/09/20 00:21:06;;;;;;;6.85;2.42;;;;;;;14.30;60.79;100549.28;7395531;19;20074;-71
2023/09/20 00:23:35;;;;;;;5.72;2.47;;;;;;;14.27;60.80;100539.72;7394554;19;20035;-71
2023/09/20 00:26:03;;;;;;;9.13;2.60;;;;;;;14.27;60.62;100549.41;7395463;19;20015;-71
2023/09/20 00:28:33;;;;;;;5.35;2.08;;;;;;;14.26;60.56;100547.69;7395312;19;20038;-70
2023/09/20 00:31:03;;;;;;;2.70;1.70;;;;;;;14.24;60.99;100541.59;7395389;19;20027;-71
2023/09/20 00:33:34;;;;;;;5.10;2.20;;;;;;;14.23;61.39;100548.69;7393937;19;20513;-71
2023/09/20 00:36:08;;;;;;;4.72;2.20;;;;;;;14.25;61.28;100543.34;7393461;19;20032;-71
2023/09/20 00:38:37;;;;;;;5.25;2.13;;;;;;;14.25;61.28;100549.44;7395302;19;20070;-71
2023/09/20 00:41:08;;;;;;;3.92;1.75;;;;;;;14.25;61.18;100551.25;7395013;19;20028;-71
2023/09/20 00:43:36;;;;;;;5.10;2.00;;;;;;;14.24;61.31;100546.88;7394209;19;20010;-71
2023/09/20 00:46:07;;;;;;;4.65;2.17;;;;;;;14.23;61.18;100547.78;7394879;19;20035;-71
2023/09/20 00:48:39;;;;;;;6.65;2.42;;;;;;;14.22;61.40;100546.09;7395831;19;20011;-71
2023/09/20 00:51:09;;;;;;;5.25;2.33;;;;;;;14.22;61.51;100540.84;7402846;19;20010;-70
2023/09/20 00:53:38;;;;;;;3.03;1.77;;;;;;;14.21;61.51;100539.09;7400451;19;20010;-71
2023/09/20 00:56:09;;;;;;;3.25;1.90;;;;;;;14.17;61.75;100538.38;7400534;19;20029;-71
2023/09/20 00:58:38;;;;;;;6.63;2.30;;;;;;;14.20;61.77;100540.03;7402606;19;20014;-71
2023/09/20 01:01:08;;;;;;;6.32;2.67;;;;;;;14.19;61.79;100552.34;7401751;19;20550;-70
2023/09/20 01:03:40;;;;;;;8.00;2.10;;;;;;;14.18;62.05;100548.84;7399084;19;20034;-71
2023/09/20 01:06:09;;;;;;;4.80;2.05;;;;;;;14.17;62.14;100549.75;7402229;19;20078;-71
2023/09/20 01:08:38;;;;;;;4.80;2.13;;;;;;;14.18;61.93;100546.22;7401810;19;20015;-71
2023/09/20 01:11:09;;;;;;;4.88;1.88;;;;;;;14.18;62.20;100546.22;7401848;19;20066;-72
2023/09/20 01:13:38;;;;;;;4.50;2.05;;;;;;;14.18;62.34;100546.22;7401678;19;20011;-69
2023/09/20 01:16:07;;;;;;;4.45;2.03;;;;;;;14.20;62.40;100558.50;7400094;19;20028;-69
2023/09/20 01:18:35;;;;;;;7.38;2.42;;;;;;;14.19;62.27;100541.78;7402496;19;20011;-69
2023/09/20 01:21:06;;;;;;;4.32;2.35;;;;;;;14.20;62.76;100550.56;7401109;19;20477;-69
2023/09/20 01:23:38;;;;;;;5.00;2.03;;;;;;;14.21;62.54;100549.66;7399579;19;20074;-69
2023/09/20 01:26:07;;;;;;;7.07;2.50;;;;;;;14.21;62.68;100542.59;7399057;19;20074;-69
2023/09/20 01:28:35;;;;;;;4.07;2.40;;;;;;;14.21;62.91;100553.16;7401198;19;20024;-69
2023/09/20 01:31:04;;;;;;;4.75;2.38;;;;;;;14.21;63.03;100547.88;7398068;19;20078;-69
2023/09/20 01:33:33;;;;;;;5.38;2.25;;;;;;;14.21;63.08;100549.66;7399650;19;20015;-70
2023/09/20 01:36:04;;;;;;;10.60;2.40;;;;;;;14.18;63.07;100540.09;7398193;19;20014;-69
2023/09/20 01:38:33;;;;;;;7.03;2.85;;;;;;;14.18;63.04;100540.94;7398743;19;20018;-70
2023/09/20 01:41:05;;;;;;;6.63;2.35;;;;;;;14.17;63.35;100539.22;7400863;19;20014;-69
2023/09/20 01:43:34;;;;;;;5.45;2.22;;;;;;;14.15;63.31;100530.53;7399467;19;20015;-69
2023/09/20 01:46:04;;;;;;;5.15;2.63;;;;;;;14.14;63.41;100535.84;7400596;19;20018;-69
2023/09/20 01:48:33;;;;;;;4.32;1.92;;;;;;;14.12;63.60;100535.06;7400562;19;20079;-70
2023/09/20 01:51:02;;;;;;;5.32;2.55;;;;;;;14.12;63.72;100532.41;7400033;19;20082;-70
2023/09/20 01:53:32;;;;;;;3.33;2.22;;;;;;;14.09;63.95;100536.03;7399120;19;20033;-69
2023/09/20 01:56:03;;;;;;;4.60;2.00;;;;;;;14.08;64.20;100534.31;7397740;19;20027;-69
2023/09/20 01:58:32;;;;;;;4.82;2.65;;;;;;;14.07;64.12;100534.38;7400632;19;20018;-70
2023/09/20 02:01:00;;;;;;;5.53;2.20;;;;;;;14.05;64.27;100542.34;7399929;19;20010;-70
2023/09/20 02:03:31;;;;;;;6.95;2.47;;;;;;;14.01;64.48;100532.81;7398436;19;20092;-70
2023/09/20 02:06:00;;;;;;;7.82;2.22;;;;;;;14.05;64.58;100537.06;7400465;19;20011;-69
2023/09/20 02:08:28;;;;;;;4.50;2.28;;;;;;;14.03;64.75;100538.91;7400035;19;20490;-70
2023/09/20 02:10:57;;;;;;;5.18;2.22;;;;;;;14.04;64.85;100543.28;7403552;19;20011;-69
2023/09/20 02:13:28;;;;;;;4.88;2.30;;;;;;;14.04;65.08;100545.03;7401626;19;20397;-72
2023/09/20 02:15:59;;;;;;;6.00;2.30;;;;;;;14.03;65.07;100546.81;7399106;19;20074;-70
2023/09/20 02:18:27;;;;;;;4.78;1.85;;;;;;;14.03;65.20;100557.38;7399999;19;20021;-70
2023/09/20 02:20:57;;;;;;;6.18;2.55;;;;;;;14.01;65.37;100544.25;7397504;19;20576;-69
2023/09/20 02:23:27;;;;;;;5.13;2.47;;;;;;;14.01;65.36;100549.53;7398264;19;20010;-69
2023/09/20 02:25:56;;;;;;;6.30;2.45;;;;;;;14.00;65.47;100539.91;7399258;19;20006;-70
2023/09/20 02:28:25;;;;;;;4.03;1.98;;;;;;;14.01;65.63;100543.38;7396785;19;20030;-69
2023/09/20 02:30:56;;;;;;;5.43;2.00;;;;;;;14.02;65.67;100542.47;7399145;19;20090;-69
2023/09/20 02:33:26;;;;;;;2.60;1.98;;;;;;;14.02;65.94;100542.47;7398274;19;20420;-69
2023/09/20 02:35:54;;;;;;;6.60;2.30;;;;;;;14.04;65.88;100545.03;7396932;19;20014;-70
2023/09/20 02:38:23;;;;;;;6.13;2.13;;;;;;;14.06;65.81;100540.56;7398376;19;20074;-69
2023/09/20 02:40:51;;;;;;;4.70;2.08;;;;;;;14.06;66.34;100543.22;7398355;19;20070;-69
2023/09/20 02:43:20;;;;;;;3.08;2.15;;;;;;;14.08;66.11;100542.22;7397650;19;20031;-69
2023/09/20 02:45:49;;;;;;;6.15;2.40;;;;;;;14.09;66.41;100541.31;7398642;19;20078;-70
2023/09/20 02:48:20;;;;;;;5.25;2.30;;;;;;;14.11;66.47;100539.44;7398138;19;20016;-69
2023/09/20 02:50:50;;;;;;;4.63;1.95;;;;;;;14.12;66.21;100535.91;7398106;19;20516;-69
2023/09/20 02:53:18;;;;;;;5.50;1.95;;;;;;;14.14;66.44;100528.78;7397070;19;20082;-68
2023/09/20 02:55:47;;;;;;;3.15;1.88;;;;;;;14.18;66.48;100532.19;7397941;19;20078;-68
2023/09/20 02:58:16;;;;;;;4.97;1.88;;;;;;;14.20;66.84;100532.94;7398018;19;20026;-68
2023/09/20 03:00:50;;;;;;;2.67;1.80;;;;;;;14.22;66.79;100525.00;7397926;19;20070;-69
2023/09/20 03:03:23;;;;;;;6.05;2.28;;;;;;;14.24;66.86;100525.78;7397546;19;20038;-69
2023/09/20 03:05:51;;;;;;;4.18;1.90;;;;;;;14.26;66.81;100521.31;7397869;19;20079;-69
2023/09/20 03:08:20;;;;;;;5.25;2.05;;;;;;;14.28;66.96;100522.09;7397935;19;20040;-70
2023/09/20 03:10:48;;;;;;;4.03;1.92;;;;;;;14.30;67.03;100523.75;7397579;19;20359;-69
2023/09/20 03:13:18;;;;;;;4.95;2.30;;;;;;;14.33;66.98;100533.31;7395455;19;20433;-69
2023/09/20 03:15:48;;;;;;;5.35;2.13;;;;;;;14.34;67.23;100529.75;7396907;19;20010;-69
2023/09/20 03:18:18;;;;;;;6.72;1.92;;;;;;;14.37;67.23;100523.50;7397515;19;20033;-69
2023/09/20 03:20:49;;;;;;;7.10;2.40;;;;;;;14.37;67.16;100524.38;7397681;19;20014;-69
2023/09/20 03:23:18;;;;;;;5.20;2.10;;;;;;;14.38;67.32;100525.22;7396975;19;20031;-70
2023/09/20 03:25:46;;;;;;;3.28;1.88;;;;;;;14.40;67.48;100526.88;7396932;19;20090;-69
2023/09/20 03:28:16;;;;;;;6.40;1.90;;;;;;;14.42;67.32;100534.72;7397253;19;20011;-69
2023/09/20 03:30:45;;;;;;;2.85;2.08;;;;;;;14.42;67.50;100532.94;7397107;19;20081;-69
2023/09/20 03:33:13;;;;;;;4.43;2.28;;;;;;;14.43;67.66;100534.69;7396279;19;20014;-69
2023/09/20 03:35:42;;;;;;;3.60;1.67;;;;;;;14.44;67.77;100533.72;7395244;19;20014;-69
2023/09/20 03:38:14;;;;;;;3.30;2.00;;;;;;;14.43;67.72;100523.25;7396209;19;20537;-69
2023/09/20 03:40:43;;;;;;;4.97;2.30;;;;;;;14.42;67.88;100517.13;7396720;19;20093;-69
2023/09/20 03:43:12;;;;;;;6.22;1.88;;;;;;;14.41;68.06;100525.94;7395159;19;20505;-69
2023/09/20 03:45:40;;;;;;;6.82;2.40;;;;;;;14.40;68.04;100526.88;7396332;19;20078;-69
2023/09/20 03:48:09;;;;;;;7.55;1.80;;;;;;;14.38;68.29;100531.38;7396752;19;20078;-69
2023/09/20 03:50:38;;;;;;;4.13;1.88;;;;;;;14.36;68.35;100525.28;7394979;19;20006;-69
2023/09/20 03:53:07;;;;;;;2.72;1.80;;;;;;;14.35;68.27;100523.56;7396137;19;20030;-69
2023/09/20 03:55:39;;;;;;;3.67;1.67;;;;;;;14.32;68.67;100527.19;7396190;19;20007;-68
2023/09/20 03:58:08;;;;;;;4.78;2.17;;;;;;;14.32;68.85;100521.06;7394815;19;20109;-70
2023/09/20 04:00:36;;;;;;;4.88;2.03;;;;;;;14.31;68.95;100527.25;7395245;19;20090;-68
2023/09/20 04:03:13;;;;;;;4.13;1.70;;;;;;;14.28;69.40;100525.59;7395353;19;20020;-69
2023/09/20 04:05:43;;;;;;;5.82;2.20;;;;;;;14.27;68.97;100529.16;7394081;19;20370;-68
2023/09/20 04:08:11;;;;;;;2.97;1.90;;;;;;;14.26;69.60;100523.94;7395610;19;20021;-70
2023/09/20 04:10:42;;;;;;;3.92;1.70;;;;;;;14.24;69.58;100524.00;7394218;19;20011;-69
2023/09/20 04:13:11;;;;;;;4.38;2.08;;;;;;;14.22;69.70;100531.13;7394050;19;20435;-68
2023/09/20 04:15:42;;;;;;;4.75;1.77;;;;;;;14.20;69.76;100530.31;7395202;19;20378;-69
2023/09/20 04:18:10;;;;;;;5.13;1.90;;;;;;;14.17;69.83;100527.81;7394217;19;20359;-68
2023/09/20 04:20:39;;;;;;;2.35;1.60;;;;;;;14.16;70.17;100524.28;7395120;19;20424;-69
2023/09/20 04:23:09;;;;;;;5.15;1.90;;;;;;;14.14;70.29;100536.72;7392632;19;20019;-69
2023/09/20 04:25:38;;;;;;;3.30;2.00;;;;;;;14.13;70.60;100531.50;7394791;19;20010;-69
2023/09/20 04:28:09;;;;;;;5.18;2.22;;;;;;;14.10;70.77;100527.22;7395067;19;20086;-70
2023/09/20 04:30:40;;;;;;;4.07;2.03;;;;;;;14.06;70.74;100530.03;7394579;19;20484;-69
2023/09/20 04:33:10;;;;;;;5.38;1.95;;;;;;;14.10;70.93;100537.75;7394555;19;20031;-70
2023/09/20 04:35:38;;;;;;;3.33;2.00;;;;;;;14.10;70.89;100542.16;7393796;19;20017;-68
2023/09/20 04:38:07;;;;;;;2.78;1.92;;;;;;;14.08;70.99;100542.22;7392701;19;20066;-69
2023/09/20 04:40:35;;;;;;;3.80;1.60;;;;;;;14.08;71.15;100539.59;7393975;19;20380;-68
2023/09/20 04:43:05;;;;;;;6.40;2.47;;;;;;;14.09;71.36;100545.72;7393335;19;20484;-69
2023/09/20 04:45:38;;;;;;;3.63;2.03;;;;;;;14.08;71.75;100554.53;7394893;19;20006;-68
2023/09/20 04:48:08;;;;;;;2.00;1.80;;;;;;;14.08;71.39;100546.63;7393723;19;20497;-69
2023/09/20 04:50:37;;;;;;;4.22;1.95;;;;;;;14.08;71.51;100550.13;7393872;19;20010;-68
2023/09/20 04:53:06;;;;;;;5.25;1.90;;;;;;;14.07;71.39;100544.94;7393678;19;20083;-69
2023/09/20 04:55:35;;;;;;;5.40;2.55;;;;;;;14.07;71.77;100547.56;7393669;19;20078;-69
2023/09/20 04:58:03;;;;;;;5.45;2.00;;;;;;;14.07;71.90;100543.13;7391603;19;20086;-69
2023/09/20 05:00:37;;;;;;;4.88;2.45;;;;;;;14.06;71.91;100546.69;7393910;19;20014;-69
2023/09/20 05:03:08;;;;;;;11.40;4.72;;;;;;;14.06;72.20;100551.97;7391519;19;20477;-69
2023/09/20 05:05:36;;;;;;;4.20;1.75;;;;;;;14.07;72.14;100553.69;7393369;19;20070;-69
2023/09/20 05:08:08;;;;;;;4.70;1.88;;;;;;;14.06;72.30;100554.59;7392498;19;20038;-70
2023/09/20 05:10:37;;;;;;;4.35;2.00;;;;;;;14.07;72.31;100555.47;7392792;19;20378;-69
2023/09/20 05:13:06;;;;;;;6.05;1.60;;;;;;;14.07;72.34;100558.97;7392099;19;20014;-69
2023/09/20 05:15:34;;;;;;;2.90;1.98;;;;;;;14.09;72.41;100558.91;7393446;19;20023;-69
2023/09/20 05:18:04;;;;;;;3.38;1.70;;;;;;;14.09;72.40;100553.63;7391689;19;20019;-68
2023/09/20 05:20:35;;;;;;;2.58;1.67;;;;;;;14.10;72.51;100556.22;7391298;19;20022;-68
2023/09/20 05:23:03;;;;;;;2.38;1.77;;;;;;;14.12;72.49;100556.16;7390881;19;20017;-68
2023/09/20 05:25:31;;;;;;;4.78;1.92;;;;;;;14.14;72.28;100551.66;7392340;19;20025;-69
2023/09/20 05:28:00;;;;;;;3.65;1.77;;;;;;;14.11;72.67;100550.00;7392412;19;20074;-68
2023/09/20 05:30:30;;;;;;;4.30;1.73;;;;;;;14.17;72.57;100552.41;7392614;19;20030;-68
2023/09/20 05:32:58;;;;;;;6.60;2.20;;;;;;;14.21;72.61;100549.66;7392442;19;20019;-68
2023/09/20 05:35:27;;;;;;;4.60;2.03;;;;;;;14.25;72.70;100556.53;7393167;19;20010;-68
2023/09/20 05:37:59;;;;;;;3.35;1.75;;;;;;;14.27;72.93;100552.91;7398922;19;20021;-68
2023/09/20 05:40:29;;;;;;;4.43;1.73;;;;;;;14.31;72.61;100556.28;7399680;19;20011;-69
2023/09/20 05:42:58;;;;;;;3.65;2.15;;;;;;;14.33;72.41;100557.06;7398530;19;20027;-69
2023/09/20 05:45:26;;;;;;;3.17;2.03;;;;;;;14.36;72.34;100556.94;7400048;19;20028;-68
2023/09/20 05:47:54;;;;;;;6.07;1.48;;;;;;;14.40;72.52;100560.34;7397079;19;20093;-68
2023/09/20 05:50:27;;;;;;;4.65;1.77;;;;;;;14.43;72.71;100566.34;7400422;19;20074;-69
2023/09/20 05:53:06;;;;;;;6.03;1.75;;;;;;;14.46;72.91;100571.50;7399532;19;20039;-69
2023/09/20 05:55:44;;;;;;;3.40;1.80;;;;;;;14.49;72.95;100571.38;7399485;19;20010;-70
2023/09/20 05:58:12;;;;;;;1.83;1.60;;;;;;;14.53;72.53;100571.25;7398197;19;20011;-68
2023/09/20 06:00:41;;;;;;;6.32;1.70;;;;;;;14.57;72.27;100570.19;7399113;19;20010;-67
2023/09/20 06:03:11;;;;;;;5.32;1.65;;;;;;;14.60;72.63;100570.91;7397975;19;20023;-69
2023/09/20 06:05:40;;;;;;;3.72;1.90;;;;;;;14.66;72.55;100577.78;7398509;19;20526;-69
2023/09/20 06:08:14;;;;;;;2.40;1.60;;;;;;;14.69;72.60;100577.63;7399857;19;20014;-69
2023/09/20 06:11:06;;;;;;;4.55;1.65;;;;;;;14.75;72.24;100569.47;7399206;19;20015;-69
2023/09/20 06:13:35;;;;;;;5.15;1.63;;;;;;;14.78;72.35;100571.97;7398317;19;20033;-69
2023/09/20 06:16:04;;;;;;;4.90;1.98;;;;;;;14.86;72.29;100573.44;7396869;19;20078;-68
2023/09/20 06:18:35;;;;;;;3.95;1.92;;;;;;;14.91;72.42;100572.31;7396616;19;20038;-69
2023/09/20 06:21:03;;;;;;;5.95;2.15;;;;;;;14.97;71.98;100571.19;7399468;19;20130;-69
2023/09/20 06:23:34;;;;;;;3.60;1.70;;;;;;;15.02;72.28;100563.91;7396739;19;20031;-69
2023/09/20 06:26:09;;;;;;;4.38;1.98;;;;;;;15.09;71.90;100569.78;7398815;19;20411;-69
2023/09/20 06:28:40;;;;;;;6.00;2.03;;;;;;;15.15;71.72;100570.41;7398622;19;20600;-70
2023/09/20 06:31:12;;;;;;;3.80;1.90;;;;;;;15.19;71.85;100571.13;7398690;19;20006;-69
2023/09/20 06:33:41;;;;;;;5.15;1.92;;;;;;;15.25;71.67;100572.63;7396774;19;20038;-68
2023/09/20 06:36:16;;;;;;;5.00;2.00;;;;;;;15.29;72.11;100576.84;7396397;19;20501;-68
2023/09/20 06:38:49;;;;;;;4.07;1.83;;;;;;;15.34;71.77;100574.84;7396335;19;20491;-69
2023/09/20 06:41:20;;;;;;;4.07;1.87;;;;;;;15.41;71.38;100573.66;7397447;19;20002;-70
2023/09/20 06:43:48;;;;;;;5.28;1.92;;;;;;;15.48;71.32;100582.19;7397118;19;20029;-69
2023/09/20 06:46:18;;;;;;;5.05;1.88;;;;;;;15.56;71.47;100585.34;7395701;19;20518;-69
2023/09/20 06:48:46;;;;;;;5.13;1.85;;;;;;;15.64;70.92;100579.69;7397949;19;20062;-69
2023/09/20 06:51:16;;;;;;;4.97;1.60;;;;;;;15.71;71.07;100585.56;7397615;19;20732;-69
2023/09/20 06:53:48;;;;;;;3.08;1.70;;;;;;;15.80;70.85;100588.66;7396275;19;20436;-69
2023/09/20 06:56:17;;;;;;;4.28;1.63;;;;;;;15.89;70.54;100591.84;7397995;19;20017;-69
2023/09/20 06:58:45;;;;;;;4.70;1.55;;;;;;;15.97;70.21;100594.97;7396551;19;20027;-69
2023/09/20 07:01:14;;;;;;;5.60;1.73;;;;;;;16.04;70.28;100596.41;7397440;19;20020;-69
2023/09/20 07:03:42;;;;;;;7.10;2.05;;;;;;;16.12;69.93;100598.69;7395546;19;20014;-69
2023/09/20 07:06:11;;;;;;;3.08;1.55;;;;;;;16.19;69.73;100602.78;7397828;19;20082;-70
2023/09/20 07:08:39;;;;;;;6.70;1.83;;;;;;;16.27;69.61;100599.75;7397448;19;20011;-70
2023/09/20 07:11:12;;;;;;;2.28;1.20;;;;;;;16.34;69.69;100603.84;7398017;19;20122;-69
2023/09/20 07:13:40;;;;;;;14.55;1.60;;;;;;;16.40;69.62;100598.25;7396591;19;20022;-69
2023/09/20 07:16:10;;;;;;;4.95;1.50;;;;;;;16.48;69.41;100603.16;7397536;19;20014;-69
2023/09/20 07:18:41;;;;;;;3.45;2.03;;;;;;;16.55;69.27;100591.31;7395754;19;20010;-68
2023/09/20 07:21:10;;;;;;;6.75;1.55;;;;;;;16.61;69.08;100604.25;7395417;19;20026;-68
2023/09/20 07:23:39;;;;;;;4.60;1.70;;;;;;;16.68;68.85;100602.19;7395136;19;20018;-68
2023/09/20 07:26:12;;;;;;;4.80;1.40;;;;;;;16.75;68.65;100597.44;7396276;19;20485;-67
2023/09/20 07:28:42;;;;;;;5.07;1.65;;;;;;;16.83;68.19;100611.13;7396405;19;20470;-68
2023/09/20 07:31:11;;;;;;;5.68;1.58;;;;;;;16.90;68.37;100614.34;7397021;19;20011;-68
2023/09/20 07:33:40;;;;;;;1.98;1.40;;;;;;;16.98;67.75;100609.53;7395505;19;20074;-67
2023/09/20 07:36:15;;;;;;;3.20;1.25;;;;;;;17.06;67.73;100610.03;7394382;19;20030;-68
2023/09/20 07:38:43;;;;;;;4.85;1.67;;;;;;;17.14;67.44;100598.19;7395228;19;20034;-68
2023/09/20 07:41:17;;;;;;;3.15;1.50;;;;;;;17.22;67.26;100609.22;7396421;19;20006;-68
2023/09/20 07:43:47;;;;;;;4.70;1.50;;;;;;;17.30;67.19;100611.47;7394824;19;20024;-68
2023/09/20 07:46:20;;;;;;;2.20;1.30;;;;;;;17.38;66.97;100617.25;7395932;19;20010;-69
2023/09/20 07:48:50;;;;;;;5.28;1.70;;;;;;;17.46;66.92;100616.84;7395951;19;20007;-68
2023/09/20 07:51:20;;;;;;;4.28;1.40;;;;;;;17.53;66.22;100611.13;7394295;19;20042;-68
2023/09/20 07:53:49;;;;;;;2.88;1.10;;;;;;;17.61;66.20;100620.50;7394390;19;20011;-68
2023/09/20 07:56:20;;;;;;;5.50;1.83;;;;;;;17.66;65.70;100613.97;7395766;19;20011;-71
2023/09/20 07:58:48;;;;;;;4.00;1.60;;;;;;;17.72;65.52;100615.47;7394025;19;20066;-67
2023/09/20 08:01:21;;;;;;;3.92;1.48;;;;;;;17.80;65.45;100613.25;7393835;19;20031;-68
2023/09/20 08:03:54;;;;;;;3.97;1.75;;;;;;;17.87;65.21;100622.59;7393970;19;20450;-68
2023/09/20 08:06:23;;;;;;;3.97;1.33;;;;;;;17.94;65.02;100617.81;7394981;19;20021;-68
2023/09/20 08:08:52;;;;;;;6.35;1.58;;;;;;;18.02;64.67;100612.97;7395108;19;20023;-68
2023/09/20 08:11:23;;;;;;;10.25;5.57;;;;;;;18.09;64.45;100612.63;7393227;19;20023;-68
2023/09/20 08:13:53;;;;;;;5.07;2.17;;;;;;;18.16;64.18;100619.28;7394110;19;20422;-67
2023/09/20 08:16:22;;;;;;;3.05;1.33;;;;;;;18.22;63.91;100616.31;7394801;19;20414;-67
2023/09/20 08:19:04;;;;;;;4.25;1.38;;;;;;;18.26;63.76;100620.53;7392703;19;20428;-68
2023/09/20 08:21:34;;;;;;;2.65;1.40;;;;;;;18.29;63.52;100625.66;7395654;19;20016;-67
2023/09/20 09:01:49;;;;;;;6.20;1.65;;;;;;;18.69;62.07;100611.88;7394214;19;20441;-66
2023/09/20 09:04:20;;;;;;;4.32;1.50;;;;;;;18.74;61.90;100612.50;7392589;19;20014;-68
2023/09/20 09:06:55;;;;;;;4.13;1.50;;;;;;;18.81;61.89;100611.16;7394309;19;20074;-67
2023/09/20 09:09:24;;;;;;;2.50;1.13;;;;;;;18.88;62.04;100606.38;7394742;19;20018;-68
2023/09/20 09:11:52;;;;;;;5.63;1.23;;;;;;;18.94;61.41;100613.16;7400791;19;20070;-68
2023/09/20 09:14:24;;;;;;;4.32;1.88;;;;;;;18.98;61.15;100594.28;7398209;19;20022;-70
2023/09/20 09:16:52;;;;;;;5.95;1.52;;;;;;;19.04;61.03;100601.00;7401376;19;20006;-68
2023/09/20 09:19:20;;;;;;;7.75;1.80;;;;;;;19.12;60.82;100603.22;7398644;19;20011;-68
2023/09/20 09:21:50;;;;;;;4.20;1.48;;;;;;;19.17;60.40;100598.47;7400193;19;20482;-68
2023/09/20 09:24:19;;;;;;;5.35;1.40;;;;;;;19.22;60.11;100599.03;7398141;19;20031;-68
2023/09/20 09:26:48;;;;;;;2.58;1.35;;;;;;;19.28;60.58;100604.00;7401151;19;20027;-68
2023/09/20 09:29:20;;;;;;;5.00;1.35;;;;;;;19.35;60.29;100594.69;7400318;19;20421;-68
2023/09/20 09:31:54;;;;;;;6.13;1.38;;;;;;;19.45;59.95;100599.44;7400384;19;20496;-69
2023/09/20 09:34:22;;;;;;;4.47;1.92;;;;;;;19.52;59.99;100596.34;7397852;19;20015;-68
2023/09/20 09:36:53;;;;;;;5.05;1.60;;;;;;;19.61;59.76;100599.38;7398209;19;20407;-69
2023/09/20 09:39:21;;;;;;;6.18;1.40;;;;;;;19.67;59.55;100599.84;7398807;19;20363;-70
2023/09/20 09:41:51;;;;;;;2.88;1.48;;;;;;;19.75;59.31;100606.50;7397897;19;20007;-70
2023/09/20 09:44:20;;;;;;;7.55;1.88;;;;;;;19.83;59.44;100598.94;7398232;19;20034;-70
2023/09/20 09:46:48;;;;;;;6.00;1.10;;;;;;;19.89;59.23;100593.22;7397466;19;20010;-69
2023/09/20 09:49:22;;;;;;;5.47;1.42;;;;;;;19.98;58.69;100600.63;7400644;19;20019;-69
2023/09/20 09:51:54;;;;;;;5.05;1.70;;;;;;;20.05;58.15;100597.56;7401002;19;20010;-68
2023/09/20 09:54:24;;;;;;;6.10;1.37;;;;;;;20.10;58.19;100600.78;7398446;19;20006;-68
2023/09/20 09:56:52;;;;;;;9.00;1.27;;;;;;;20.13;58.21;100590.78;7402260;19;20010;-69
2023/09/20 09:59:21;;;;;;;8.25;1.60;;;;;;;20.17;58.24;100594.97;7397784;19;20477;-68
2023/09/20 10:01:50;;;;;;;4.93;1.33;;;;;;;20.23;58.04;100598.19;7399318;19;20028;-67
2023/09/20 10:04:23;;;;;;;5.22;1.90;;;;;;;20.29;58.22;100590.63;7397495;19;20322;-68
2023/09/20 10:07:01;;;;;;;5.95;2.20;;;;;;;20.36;57.73;100585.78;7399498;19;20015;-69
2023/09/20 10:09:38;;;;;;;8.70;1.40;;;;;;;20.46;57.94;100584.22;7399844;19;20010;-69
2023/09/20 10:12:07;;;;;;;6.18;1.50;;;;;;;20.52;57.42;100566.94;7399398;19;20027;-69
2023/09/20 10:14:38;;;;;;;4.95;1.20;;;;;;;20.59;56.87;100568.25;7396809;19;20038;-69
2023/09/20 10:17:08;;;;;;;8.60;2.00;;;;;;;20.64;56.58;100559.97;7396065;19;20017;-68
2023/09/20 10:19:40;;;;;;;4.50;1.85;;;;;;;20.68;57.02;100559.63;7397307;19;20014;-68
2023/09/20 10:22:13;;;;;;;4.72;1.35;;;;;;;20.72;56.52;100555.00;7393925;19;20015;-68
2023/09/20 10:24:50;;;;;;;5.68;2.10;;;;;;;20.78;56.59;100548.41;7396607;19;20022;-68
2023/09/20 10:27:20;;;;;;;3.05;1.90;;;;;;;20.83;56.46;100552.44;7398819;19;20010;-68
2023/09/20 10:30:09;;;;;;;5.13;1.63;;;;;;;20.89;55.83;100543.19;7397841;19;20010;-67
2023/09/20 10:32:53;;;;;;;4.40;1.70;;;;;;;20.97;56.16;100548.84;7399100;19;20017;-68
2023/09/20 10:35:29;;;;;;;4.35;1.70;;;;;;;21.05;55.07;100550.13;7399750;19;20014;-67
2023/09/20 10:38:28;;;;;;;4.22;1.35;;;;;;;21.11;55.17;100545.22;7396925;19;20077;-66
2023/09/20 10:41:05;;;;;;;5.55;1.42;;;;;;;21.20;55.10;100541.06;7397099;19;20014;-67
2023/09/20 10:43:51;;;;;;;7.00;1.77;;;;;;;21.30;54.78;100533.28;7397283;19;20414;-67
2023/09/20 10:46:22;;;;;;;7.22;2.00;;;;;;;21.38;54.84;100530.06;7398159;19;20026;-67
2023/09/20 10:48:52;;;;;;;4.95;1.77;;;;;;;21.46;54.32;100533.91;7395634;19;20017;-67
2023/09/20 10:51:52;;;;;;;5.32;1.30;;;;;;;21.52;53.97;100527.28;7397903;19;20031;-67
2023/09/20 10:54:34;;;;;;;5.00;2.35;;;;;;;21.58;54.29;100532.19;7395450;19;20010;-67
2023/09/20 10:59:47;;;;;;;2.63;1.55;;;;;;;21.76;54.05;100521.16;7394686;19;20042;-67
2023/09/20 11:02:17;;;;;;;3.35;1.30;;;;;;;21.85;53.71;100517.81;7395531;19;20050;-68
2023/09/20 11:04:48;;;;;;;2.72;1.33;;;;;;;21.92;52.91;100513.72;7395212;19;20035;-67
2023/09/20 11:07:21;;;;;;;3.38;1.35;;;;;;;21.98;52.61;100501.75;7397563;19;20006;-68
2023/09/20 11:09:51;;;;;;;8.40;1.83;;;;;;;22.03;52.82;100504.09;7399042;19;20027;-69
2023/09/20 11:12:20;;;;;;;4.28;1.17;;;;;;;22.08;52.62;100499.25;7396688;19;20015;-66
2023/09/20 11:14:50;;;;;;;5.25;1.33;;;;;;;22.15;52.42;100497.81;7395262;19;20018;-67
2023/09/20 11:17:19;;;;;;;6.35;1.83;;;;;;;22.22;51.97;100500.91;7397522;19;20070;-67
2023/09/20 11:19:48;;;;;;;11.63;1.83;;;;;;;22.25;52.08;100495.31;7394851;19;20031;-68
2023/09/20 11:22:21;;;;;;;4.28;1.92;;;;;;;22.33;51.98;100495.59;7395972;19;20010;-68
2023/09/20 11:24:51;;;;;;;3.17;1.63;;;;;;;22.42;51.36;100494.09;7393627;19;20021;-68
2023/09/20 11:27:20;;;;;;;4.85;1.55;;;;;;;22.53;50.97;100485.22;7395841;19;20019;-69
2023/09/20 11:29:49;;;;;;;3.88;1.23;;;;;;;22.63;51.02;100490.75;7395503;19;20488;-67
2023/09/20 11:32:22;;;;;;;2.95;1.60;;;;;;;22.69;50.62;100493.78;7395032;19;20011;-69
2023/09/20 11:34:51;;;;;;;4.75;1.27;;;;;;;22.74;50.70;100496.13;7393936;19;20010;-69
2023/09/20 11:37:24;;;;;;;2.42;1.08;;;;;;;22.77;49.75;100485.16;7393435;19;20522;-68
2023/09/20 11:39:54;;;;;;;2.50;1.27;;;;;;;22.83;49.93;100486.53;7392837;19;20027;-68
2023/09/20 11:42:28;;;;;;;5.35;1.50;;;;;;;22.87;49.35;100480.81;7394623;19;20356;-68
2023/09/20 11:44:58;;;;;;;2.53;1.10;;;;;;;22.93;49.11;100493.69;7395526;19;20033;-67
2023/09/20 11:47:27;;;;;;;2.33;0.90;;;;;;;22.96;49.24;100486.41;7395157;19;20038;-67
2023/09/20 11:49:58;;;;;;;2.15;1.00;;;;;;;22.99;49.00;100475.47;7395664;19;20027;-68
2023/09/20 11:52:29;;;;;;;2.75;1.40;;;;;;;23.03;49.12;100475.13;7393552;19;20074;-68
2023/09/20 11:55:04;;;;;;;2.58;1.05;;;;;;;23.11;48.93;100474.50;7395332;19;20007;-69
2023/09/20 11:57:35;;;;;;;4.25;1.50;;;;;;;23.19;48.65;100465.91;7395495;19;20006;-69
2023/09/20 12:00:05;;;;;;;1.70;1.15;;;;;;;23.27;48.45;100469.66;7393881;19;20006;-69
2023/09/20 12:02:35;;;;;;;3.78;1.40;;;;;;;23.38;48.27;100467.94;7395493;19;20010;-69
2023/09/20 12:05:04;;;;;;;4.60;1.27;;;;;;;23.48;47.60;100466.25;7393522;19;20014;-68
2023/09/20 12:07:35;;;;;;;3.70;1.38;;;;;;;23.56;47.35;100466.47;7393962;19;20049;-68
2023/09/20 12:10:06;;;;;;;4.28;1.20;;;;;;;23.66;47.58;100463.06;7393870;19;20014;-68
2023/09/20 12:12:35;;;;;;;2.83;1.40;;;;;;;23.80;47.11;100464.63;7394262;19;20020;-68
2023/09/20 12:15:06;;;;;;;5.55;1.40;;;;;;;23.93;46.99;100464.47;7392682;19;20010;-68
2023/09/20 12:17:34;;;;;;;6.45;1.13;;;;;;;24.06;46.50;100462.47;7393061;19;20505;-69
2023/09/20 12:20:04;;;;;;;7.97;1.73;;;;;;;24.18;46.15;100458.75;7393555;19;20014;-67